Stratmoor Hills, Colorado
Current Conditions -  °F | °C
As of 5:56 AM on Friday 28 Nov 2014 (Local Time) from KCWN Reporting Station
Clear Clear  
Wind Chill: 46°   Ceiling: Unl
Heat Index: 48°   Visibility: 10mi
Dew Point: 11°   Wind: 5mph
Humidity: 23%   Direction: NA
Pressure: 30.04"   Gusts: NA
Location:  38.7684°N, 104.872°W
Report Text: KCWN 281256Z AUTO VRB04KT 10SM CLR 09/M12 A3004 RMK AO2 SLP133 T00871116
Loading
Personal Weather Stations






























Interactive Weather Map New forecast layout! Learn more

10-Day Weather Forecast

Advertisements
Track Severe Weather on mobile